Time;durP1;ratioP1;P1;durP2;ratioP2;P2;SDS_P1;SDS_P2;PMS_P1;PMS_P2;Temp;Humidity;BMP_temperature;BMP_pressure;BME280_temperature;BME280_humidity;BME280_pressure;Samples;Min_cycle;Max_cycle;Signal;HPM_P1;HPM_P2
2022/11/24 00:03:18;;;;;;;102.82;61.70;;;;;;;3.48;98.31;99463.48;2803849;84;21083;-65
2022/11/24 00:07:20;;;;;;;93.75;59.30;;;;;;;3.50;98.47;99470.80;2829921;84;21052;-63
2022/11/24 00:16:23;;;;;;;;;;;;;;;3.54;98.87;99478.85;2810196;84;20993;-63
2022/11/24 00:20:26;;;;;;;94.67;58.65;;;;;;;3.59;99.61;99482.50;2823784;84;20098;-61
2022/11/24 00:24:28;;;;;;;99.22;58.25;;;;;;;3.65;99.33;99489.52;2829883;83;20989;-60
2022/11/24 00:32:54;;;;;;;101.00;59.35;;;;;;;3.45;100.00;99493.44;2829831;84;21008;-61
2022/11/24 00:36:57;;;;;;;104.53;63.50;;;;;;;3.42;100.00;99506.30;2791935;84;20945;-60
2022/11/24 00:40:59;;;;;;;97.33;62.95;;;;;;;3.43;100.00;99498.78;2726970;84;20992;-63
2022/11/24 00:45:01;;;;;;;94.07;57.80;;;;;;;3.59;100.00;99496.97;2829974;84;20984;-62
2022/11/24 00:49:02;;;;;;;112.35;63.13;;;;;;;3.67;99.37;99501.23;2830059;82;20996;-61
2022/11/24 00:53:07;;;;;;;99.00;62.10;;;;;;;3.76;99.40;99498.02;2829859;84;20976;-62
2022/11/24 00:57:09;;;;;;;104.80;61.85;;;;;;;3.82;98.61;99499.38;2829728;84;21011;-61
2022/11/24 01:01:14;;;;;;;94.62;59.03;;;;;;;3.82;97.93;99493.66;2764666;84;21061;-62
2022/11/24 01:05:38;;;;;;;98.23;56.90;;;;;;;3.82;97.86;99492.34;2807945;84;21016;-61
2022/11/24 01:09:42;;;;;;;85.72;54.53;;;;;;;3.79;97.86;99497.81;2845692;83;21008;-62
2022/11/24 01:14:18;;;;;;;87.25;58.78;;;;;;;3.80;98.20;99488.97;2850503;83;21281;-61
2022/11/24 01:18:27;;;;;;;84.97;54.58;;;;;;;3.78;98.32;99496.58;2832048;83;21036;-61
2022/11/24 01:22:28;;;;;;;87.90;52.88;;;;;;;3.71;98.33;99499.63;2828079;84;21451;-60
2022/11/24 01:26:30;;;;;;;88.70;57.33;;;;;;;3.64;99.06;99495.73;2829554;82;21126;-64
2022/11/24 01:30:32;;;;;;;91.60;55.52;;;;;;;3.56;99.65;99496.23;2829252;84;21039;-61
2022/11/24 01:34:36;;;;;;;92.30;56.77;;;;;;;3.49;100.00;99488.34;2830029;84;21245;-62
2022/11/24 01:38:37;;;;;;;79.05;52.15;;;;;;;3.49;100.00;99496.23;2814534;83;21056;-61
2022/11/24 01:43:06;;;;;;;83.20;52.60;;;;;;;3.60;100.00;99500.80;2829884;83;20985;-62
2022/11/24 01:47:35;;;;;;;85.53;55.65;;;;;;;3.66;100.00;99495.16;2829818;83;21012;-61
2022/11/24 01:52:17;;;;;;;81.22;50.60;;;;;;;3.69;100.00;99510.73;2751394;83;21081;-61
2022/11/24 01:56:19;;;;;;;94.22;56.20;;;;;;;3.75;100.00;99507.31;2799457;85;21015;-62
2022/11/24 02:00:21;;;;;;;91.47;51.75;;;;;;;3.89;100.00;99514.28;2777967;83;20955;-65
2022/11/24 02:04:27;;;;;;;101.60;59.70;;;;;;;3.94;100.00;99522.73;2813121;83;21016;-61
2022/11/24 02:09:02;;;;;;;108.37;59.88;;;;;;;4.04;100.00;99521.16;2850008;83;21020;-63
2022/11/24 02:13:04;;;;;;;101.65;57.98;;;;;;;4.08;100.00;99533.16;2848978;83;21019;-63
2022/11/24 02:17:08;;;;;;;100.58;57.33;;;;;;;4.20;100.00;99532.81;2822183;81;21067;-61
2022/11/24 02:21:24;;;;;;;100.75;55.30;;;;;;;4.22;100.00;99529.59;2810429;83;21118;-61
2022/11/24 02:30:15;;;;;;;97.97;61.68;;;;;;;4.21;100.00;99523.14;2845666;82;21277;-62
2022/11/24 02:34:37;;;;;;;104.03;61.70;;;;;;;4.20;100.00;99516.19;2832558;83;21580;-60
2022/11/24 02:38:39;;;;;;;110.48;61.73;;;;;;;4.27;100.00;99516.13;2827884;83;21098;-61
2022/11/24 02:42:43;;;;;;;112.62;62.25;;;;;;;4.32;100.00;99521.92;2840995;82;21065;-62
2022/11/24 02:46:45;;;;;;;106.10;64.35;;;;;;;4.37;100.00;99522.47;2836190;83;21031;-61
2022/11/24 02:50:48;;;;;;;118.28;64.62;;;;;;;4.45;100.00;99524.58;2846104;83;21035;-61
2022/11/24 02:54:50;;;;;;;104.65;62.50;;;;;;;4.63;100.00;99515.05;2851160;83;21019;-61
2022/11/24 02:58:54;;;;;;;99.37;58.55;;;;;;;4.71;99.58;99517.48;2851022;83;20984;-62
2022/11/24 03:02:55;;;;;;;127.62;65.22;;;;;;;4.73;98.29;99519.20;2849768;83;20988;-62
2022/11/24 03:07:29;;;;;;;104.60;60.83;;;;;;;4.75;98.04;99515.48;2819607;83;21011;-61
2022/11/24 03:11:31;;;;;;;98.00;61.30;;;;;;;4.71;96.49;99509.58;2846386;83;20996;-62
2022/11/24 03:15:34;;;;;;;112.55;61.35;;;;;;;4.73;97.24;99508.66;2846431;83;21055;-62
2022/11/24 03:19:36;;;;;;;122.10;60.98;;;;;;;4.74;97.23;99499.80;2842458;81;21059;-64
2022/11/24 03:23:38;;;;;;;99.25;58.35;;;;;;;4.64;97.21;99499.11;2842924;84;21008;-61
2022/11/24 03:28:00;;;;;;;81.08;48.23;;;;;;;4.69;98.87;99499.63;2842785;81;20956;-62
2022/11/24 03:32:02;;;;;;;98.55;58.10;;;;;;;4.79;99.19;99499.00;2822250;82;21043;-63
2022/11/24 03:36:07;;;;;;;96.60;54.85;;;;;;;4.94;98.90;99509.78;2789887;82;21047;-65
2022/11/24 03:40:59;;;;;;;90.60;56.13;;;;;;;4.98;97.71;99503.80;2842796;82;20984;-61
2022/11/24 03:45:00;;;;;;;92.65;61.18;;;;;;;4.93;97.16;99504.61;2811990;81;21015;-61
2022/11/24 03:49:17;;;;;;;91.53;55.80;;;;;;;4.78;96.99;99511.81;2832473;84;21000;-61
2022/11/24 03:53:18;;;;;;;117.75;58.33;;;;;;;4.61;96.76;99520.41;2838632;84;20976;-61
2022/11/24 03:58:01;;;;;;;105.95;61.40;;;;;;;4.39;97.01;99521.89;2840567;84;20997;-63
2022/11/24 04:02:03;;;;;;;101.30;58.35;;;;;;;4.12;97.30;99521.48;2821427;82;21048;-64
2022/11/24 04:06:04;;;;;;;94.17;60.78;;;;;;;3.85;98.60;99526.34;2855757;82;21031;-60
2022/11/24 04:10:23;;;;;;;110.72;63.60;;;;;;;3.64;99.53;99528.61;2824072;84;21469;-59
2022/11/24 04:14:25;;;;;;;110.45;66.55;;;;;;;3.54;100.00;99524.41;2852049;82;21039;-60
2022/11/24 04:18:26;;;;;;;91.40;58.17;;;;;;;3.50;100.00;99519.45;2796480;82;21027;-60
2022/11/24 04:22:49;;;;;;;111.97;60.43;;;;;;;3.32;100.00;99526.71;2844148;83;21039;-64
2022/11/24 04:26:50;;;;;;;103.25;59.42;;;;;;;3.16;100.00;99536.05;2842880;84;21062;-64
2022/11/24 04:31:09;;;;;;;112.70;60.38;;;;;;;3.07;100.00;99539.64;2849034;83;21110;-62
2022/11/24 04:35:10;;;;;;;111.15;60.40;;;;;;;3.02;100.00;99540.38;2849387;83;21004;-63
2022/11/24 04:39:13;;;;;;;108.50;64.97;;;;;;;2.98;100.00;99555.52;2815911;82;21107;-61
2022/11/24 04:43:17;;;;;;;110.35;61.02;;;;;;;2.95;100.00;99558.79;2849764;82;21031;-62
2022/11/24 04:47:24;;;;;;;107.45;61.37;;;;;;;3.03;100.00;99572.77;2849600;82;21048;-61
2022/11/24 04:51:26;;;;;;;112.00;58.30;;;;;;;3.10;100.00;99572.30;2846102;81;21079;-62
2022/11/24 04:55:28;;;;;;;96.05;55.55;;;;;;;3.14;100.00;99578.19;2845801;83;21083;-64
2022/11/24 04:59:30;;;;;;;110.37;58.70;;;;;;;3.17;100.00;99578.02;2851001;83;21031;-62
2022/11/24 05:03:35;;;;;;;111.52;61.10;;;;;;;3.26;100.00;99581.86;2896136;82;21039;-62
2022/11/24 05:07:37;;;;;;;122.62;69.87;;;;;;;3.35;100.00;99588.33;2844927;83;21059;-63
2022/11/24 05:11:39;;;;;;;122.22;60.92;;;;;;;3.47;100.00;99594.59;2845894;83;21003;-61
2022/11/24 05:15:42;;;;;;;116.55;59.63;;;;;;;3.62;100.00;99607.22;2846779;83;21063;-63
2022/11/24 05:19:43;;;;;;;91.08;56.33;;;;;;;3.73;100.00;99609.17;2865456;82;21035;-62
2022/11/24 05:23:47;;;;;;;101.35;58.68;;;;;;;3.71;100.00;99610.56;2892322;82;20998;-62
2022/11/24 05:27:56;;;;;;;109.07;57.27;;;;;;;3.71;100.00;99623.72;2827255;82;20998;-62
2022/11/24 05:31:58;;;;;;;103.50;54.10;;;;;;;3.69;100.00;99633.50;2821343;82;21030;-61
2022/11/24 05:36:03;;;;;;;137.18;65.97;;;;;;;3.66;100.00;99642.45;2861289;82;21012;-62
2022/11/24 05:40:11;;;;;;;111.15;56.23;;;;;;;3.64;100.00;99639.08;2796544;83;21011;-62
2022/11/24 05:44:12;;;;;;;95.03;56.20;;;;;;;3.73;100.00;99636.30;2830275;82;21059;-62
2022/11/24 05:48:15;;;;;;;102.70;57.50;;;;;;;3.67;100.00;99638.02;2845324;82;21603;-63
2022/11/24 05:52:23;;;;;;;97.60;55.65;;;;;;;3.73;100.00;99649.45;2825088;82;21090;-62
2022/11/24 05:56:24;;;;;;;105.10;59.20;;;;;;;3.86;100.00;99653.48;2863352;82;21054;-62
2022/11/24 06:00:29;;;;;;;96.67;57.60;;;;;;;3.98;100.00;99647.91;2843557;82;21066;-62
2022/11/24 06:04:31;;;;;;;108.83;60.27;;;;;;;4.08;100.00;99650.30;2846261;82;21062;-62
2022/11/24 06:08:37;;;;;;;122.92;59.05;;;;;;;4.07;100.00;99667.52;2841585;82;21024;-62
2022/11/24 06:12:38;;;;;;;85.90;50.50;;;;;;;4.00;100.00;99681.55;2841931;84;20996;-63
2022/11/24 06:16:41;;;;;;;90.40;56.08;;;;;;;3.89;100.00;99681.37;2842313;84;20988;-64
2022/11/24 06:20:42;;;;;;;92.45;53.38;;;;;;;3.93;100.00;99673.65;2838164;83;21000;-62
2022/11/24 06:24:45;;;;;;;95.05;55.35;;;;;;;4.02;100.00;99678.80;2854567;83;21051;-62
2022/11/24 06:28:47;;;;;;;106.43;55.98;;;;;;;4.14;100.00;99680.65;2856189;83;21031;-63
2022/11/24 06:32:55;;;;;;;110.48;51.63;;;;;;;4.25;100.00;99688.70;2776299;83;21055;-62
2022/11/24 06:36:57;;;;;;;100.35;61.42;;;;;;;4.37;100.00;99684.42;2845823;82;21051;-62
2022/11/24 06:41:09;;;;;;;106.97;59.75;;;;;;;4.47;100.00;99685.12;2830085;83;20990;-62
2022/11/24 06:45:29;;;;;;;93.58;55.48;;;;;;;4.53;100.00;99693.47;2784627;82;21026;-64
2022/11/24 06:49:32;;;;;;;97.78;53.17;;;;;;;4.62;100.00;99697.73;2818256;82;21048;-63
2022/11/24 06:53:37;;;;;;;87.25;52.70;;;;;;;4.58;99.90;99699.27;2836247;83;21083;-62
2022/11/24 06:57:38;;;;;;;92.75;50.12;;;;;;;4.53;99.93;99703.17;2846043;83;21003;-64
2022/11/24 07:01:39;;;;;;;88.17;50.38;;;;;;;4.50;99.94;99694.13;2836296;83;21044;-63
2022/11/24 07:05:42;;;;;;;92.33;54.38;;;;;;;4.51;100.00;99707.67;2846036;83;21103;-63
2022/11/24 07:09:44;;;;;;;88.95;49.48;;;;;;;4.51;100.00;99717.75;2816273;81;21078;-63
2022/11/24 07:13:46;;;;;;;92.80;54.93;;;;;;;4.37;99.90;99725.24;2833795;83;21122;-63
2022/11/24 07:17:48;;;;;;;84.87;49.42;;;;;;;4.36;100.00;99725.33;2847901;82;21059;-63
2022/11/24 07:21:49;;;;;;;83.92;53.00;;;;;;;4.44;100.00;99736.22;2845836;83;20964;-63
2022/11/24 07:25:55;;;;;;;98.58;54.93;;;;;;;4.52;100.00;99737.88;2810040;81;21012;-62
2022/11/24 07:29:56;;;;;;;87.15;52.73;;;;;;;4.62;100.00;99742.06;2835225;83;21060;-63
2022/11/24 07:34:28;;;;;;;84.05;49.80;;;;;;;4.61;99.54;99750.91;2828923;83;21981;-63
2022/11/24 07:38:31;;;;;;;91.53;51.58;;;;;;;4.61;99.76;99754.86;2847102;82;20968;-62
2022/11/24 07:42:33;;;;;;;82.40;51.37;;;;;;;4.57;99.44;99759.48;2821061;83;21011;-63
2022/11/24 07:46:34;;;;;;;105.47;58.60;;;;;;;4.56;99.60;99764.87;2838200;83;21102;-62
2022/11/24 07:50:35;;;;;;;75.08;44.38;;;;;;;4.57;99.89;99763.43;2845818;82;21090;-65
2022/11/24 07:54:37;;;;;;;86.67;55.17;;;;;;;4.43;100.00;99773.55;2846303;83;21046;-62
2022/11/24 07:58:38;;;;;;;102.97;56.58;;;;;;;4.39;100.00;99774.70;2846217;82;20975;-62
2022/11/24 08:02:39;;;;;;;91.47;53.58;;;;;;;4.32;100.00;99776.02;2843458;82;21004;-62
2022/11/24 08:06:40;;;;;;;93.05;52.67;;;;;;;4.24;100.00;99780.94;2833504;83;21020;-63
2022/11/24 08:10:42;;;;;;;95.80;58.60;;;;;;;4.29;100.00;99774.91;2846077;82;21099;-63
2022/11/24 08:14:43;;;;;;;86.47;49.08;;;;;;;4.48;100.00;99775.04;2846113;83;21059;-63
2022/11/24 08:18:50;;;;;;;103.17;54.35;;;;;;;4.61;100.00;99781.67;2844740;82;21295;-63
2022/11/24 08:22:57;;;;;;;93.22;52.70;;;;;;;4.64;100.00;99783.64;2788604;84;21023;-63
2022/11/24 08:27:00;;;;;;;111.57;57.62;;;;;;;4.66;100.00;99790.97;2829341;83;20980;-63
2022/11/24 08:31:05;;;;;;;86.55;50.23;;;;;;;4.66;100.00;99796.23;2803242;83;20977;-62
2022/11/24 08:35:11;;;;;;;93.47;52.23;;;;;;;4.62;100.00;99792.12;2797961;84;21372;-63
2022/11/24 08:39:14;;;;;;;100.92;57.13;;;;;;;4.54;100.00;99793.10;2809442;84;21027;-64
2022/11/24 08:43:19;;;;;;;101.45;54.85;;;;;;;4.57;100.00;99785.00;2830669;83;21020;-62
2022/11/24 08:47:20;;;;;;;96.80;55.95;;;;;;;4.48;100.00;99786.44;2808097;84;21068;-62
2022/11/24 08:51:31;;;;;;;85.97;48.75;;;;;;;4.59;100.00;99789.69;2832089;83;21039;-62
2022/11/24 08:55:32;;;;;;;98.37;57.90;;;;;;;4.75;100.00;99793.97;2850197;83;21039;-63
2022/11/24 08:59:34;;;;;;;120.87;60.63;;;;;;;4.89;100.00;99789.09;2788999;83;21029;-63
2022/11/24 09:03:37;;;;;;;88.20;56.10;;;;;;;5.05;100.00;99799.00;2826364;84;21071;-62
2022/11/24 09:07:38;;;;;;;98.55;52.08;;;;;;;5.21;100.00;99800.12;2798657;83;21008;-65
2022/11/24 09:11:39;;;;;;;89.13;48.98;;;;;;;5.14;99.89;99808.91;2828206;84;20985;-63
2022/11/24 09:15:54;;;;;;;92.05;54.15;;;;;;;5.00;100.00;99808.52;2805362;84;21012;-63
2022/11/24 09:19:56;;;;;;;102.72;55.73;;;;;;;4.90;100.00;99807.43;2828832;82;21265;-63
2022/11/24 09:23:57;;;;;;;94.05;53.75;;;;;;;4.91;100.00;99809.11;2838276;81;71945;-89
2022/11/24 09:27:58;;;;;;;102.55;58.45;;;;;;;4.96;100.00;99807.05;2835925;82;21047;-89
2022/11/24 09:32:00;;;;;;;107.52;55.38;;;;;;;4.96;100.00;99806.19;2916596;80;21062;-89
2022/11/24 09:36:01;;;;;;;96.75;53.25;;;;;;;4.94;100.00;99802.34;2920832;80;21027;-89
2022/11/24 09:40:04;;;;;;;86.12;49.45;;;;;;;4.96;100.00;99804.41;2887366;80;22268;-89
2022/11/24 09:44:35;;;;;;;85.45;48.20;;;;;;;4.96;100.00;99801.77;2893196;81;21070;-89
2022/11/24 09:48:40;;;;;;;92.22;54.75;;;;;;;4.95;100.00;99798.77;2888697;80;21065;-88
2022/11/24 09:53:14;;;;;;;86.40;53.83;;;;;;;4.90;100.00;99798.20;2902212;80;21024;-88
2022/11/24 09:57:18;;;;;;;104.07;61.85;;;;;;;5.04;100.00;99807.00;2834642;82;21024;-88
2022/11/24 10:01:30;;;;;;;110.97;56.15;;;;;;;5.13;100.00;99803.77;2847256;82;20979;-88
2022/11/24 10:05:35;;;;;;;92.02;55.83;;;;;;;5.18;100.00;99808.25;2832752;82;21641;-89
2022/11/24 10:10:07;;;;;;;97.20;53.73;;;;;;;5.27;100.00;99808.93;2872318;81;21051;-89
2022/11/24 10:14:52;;;;;;;93.10;59.20;;;;;;;5.40;100.00;99813.39;2844308;82;21650;-88
2022/11/24 10:19:24;;;;;;;97.85;57.75;;;;;;;5.63;100.00;99816.25;2820499;82;21039;-89
2022/11/24 10:23:59;;;;;;;113.80;61.50;;;;;;;5.89;100.00;99818.86;2833834;82;21046;-90
2022/11/24 10:28:04;;;;;;;120.55;65.50;;;;;;;6.04;100.00;99817.83;2853100;82;21613;-88
2022/11/24 10:32:19;;;;;;;95.67;57.40;;;;;;;6.11;100.00;99818.24;2846572;83;20996;-88
2022/11/24 10:36:59;;;;;;;105.60;57.58;;;;;;;6.16;100.00;99820.56;2848284;82;21022;-88
2022/11/24 10:41:09;;;;;;;110.37;66.57;;;;;;;6.24;100.00;99816.89;2899053;82;21133;-89
2022/11/24 10:45:15;;;;;;;93.05;55.05;;;;;;;6.37;99.33;99818.17;2853500;82;21086;-88
2022/11/24 10:49:29;;;;;;;109.33;66.53;;;;;;;6.29;98.44;99812.97;2846606;82;21144;-88
2022/11/24 10:53:33;;;;;;;106.10;58.02;;;;;;;6.29;99.78;99810.83;2865800;82;21035;-89
2022/11/24 10:57:38;;;;;;;105.58;60.83;;;;;;;6.42;99.87;99817.38;2840233;82;21514;-88
2022/11/24 11:01:39;;;;;;;102.95;59.33;;;;;;;6.46;98.92;99825.45;2920613;80;22085;-88
2022/11/24 11:05:45;;;;;;;98.15;59.42;;;;;;;6.51;98.49;99825.13;2918946;80;21143;-89
2022/11/24 11:09:48;;;;;;;99.25;55.85;;;;;;;6.51;98.61;99811.91;2935055;79;20987;-88
2022/11/24 11:14:05;;;;;;;115.22;59.88;;;;;;;6.63;99.08;99812.81;2937066;80;20976;-86
2022/11/24 11:18:11;;;;;;;136.82;76.45;;;;;;;6.76;98.46;99809.62;2779522;82;20980;-88
2022/11/24 11:22:27;;;;;;;;;;;;;;;6.81;97.07;99813.25;2908136;80;21041;-88
2022/11/24 11:26:34;;;;;;;111.62;61.33;;;;;;;6.70;96.25;99808.30;2865934;80;20143;-89
2022/11/24 11:30:35;;;;;;;94.45;54.30;;;;;;;6.65;96.71;99809.09;2866539;81;21535;-89
2022/11/24 11:34:37;;;;;;;104.03;53.20;;;;;;;6.61;96.80;99806.80;2866659;80;21072;-89
2022/11/24 11:38:39;;;;;;;102.35;55.73;;;;;;;6.58;97.14;99811.82;2867797;81;21016;-89
2022/11/24 11:42:46;;;;;;;90.80;54.48;;;;;;;6.53;96.96;99815.28;2881548;81;21546;-88
2022/11/24 11:46:48;;;;;;;105.70;60.98;;;;;;;6.61;97.96;99814.23;2860978;80;21051;-89
2022/11/24 11:50:55;;;;;;;89.05;50.63;;;;;;;6.66;96.97;99817.87;2853637;80;21051;-87
2022/11/24 11:55:33;;;;;;;94.87;52.75;;;;;;;6.68;96.87;99820.78;2839138;81;21028;-88
2022/11/24 11:59:52;;;;;;;99.62;58.80;;;;;;;6.68;96.47;99822.10;2832235;82;21052;-89
2022/11/24 12:04:01;;;;;;;81.32;50.35;;;;;;;6.71;97.10;99820.55;2786485;83;21091;-89
2022/11/24 12:08:32;;;;;;;85.70;48.55;;;;;;;6.75;96.82;99824.29;2806348;83;21086;-88
2022/11/24 12:13:02;;;;;;;86.37;50.00;;;;;;;6.82;97.14;99829.02;2750128;84;21561;-88
2022/11/24 12:17:10;;;;;;;96.40;53.80;;;;;;;6.84;96.13;99826.23;2755764;84;21024;-88
2022/11/24 12:21:26;;;;;;;85.35;48.40;;;;;;;6.89;97.04;99822.80;2741035;84;21047;-89
2022/11/24 12:25:41;;;;;;;94.05;55.25;;;;;;;6.89;96.72;99822.80;2739210;84;21046;-88
2022/11/24 12:30:07;;;;;;;88.20;48.17;;;;;;;6.91;96.39;99824.84;2798558;84;21546;-88
2022/11/24 12:34:31;;;;;;;90.63;62.40;;;;;;;6.84;96.55;99824.92;2833423;82;21034;-88
2022/11/24 12:39:04;;;;;;;96.82;54.33;;;;;;;6.75;97.29;99832.22;2845816;81;21257;-89
2022/11/24 12:43:37;;;;;;;83.55;49.40;;;;;;;6.62;98.10;99838.39;2826388;82;21023;-89
2022/11/24 12:48:24;;;;;;;77.08;48.35;;;;;;;6.52;99.25;99832.09;2837651;82;21594;-89
2022/11/24 12:52:43;;;;;;;81.72;48.63;;;;;;;6.46;100.00;99831.20;2836298;82;21059;-88
2022/11/24 12:57:20;;;;;;;87.70;50.55;;;;;;;6.37;100.00;99829.59;2829036;83;21602;-89
2022/11/24 13:01:30;;;;;;;;;;;;;;;6.49;100.00;99828.36;2839093;82;21040;-89
2022/11/24 13:05:54;;;;;;;77.55;52.83;;;;;;;6.47;100.00;99828.45;2829589;83;20433;-88
2022/11/24 13:10:27;;;;;;;98.60;59.53;;;;;;;6.48;100.00;99833.25;2798981;82;21059;-87
2022/11/24 13:14:35;;;;;;;105.07;58.00;;;;;;;6.48;100.00;99841.17;2855007;82;21059;-89
2022/11/24 13:18:52;;;;;;;82.30;49.98;;;;;;;6.54;100.00;99837.62;2825966;84;21043;-89
2022/11/24 13:23:02;;;;;;;72.53;46.70;;;;;;;6.58;100.00;99842.21;2839050;82;21050;-89
2022/11/24 13:27:18;;;;;;;82.62;52.33;;;;;;;6.58;100.00;99842.21;2827817;80;22247;-89
2022/11/24 13:31:22;;;;;;;89.62;54.18;;;;;;;6.64;100.00;99840.93;2862448;82;21544;-89
2022/11/24 13:35:23;;;;;;;79.50;50.75;;;;;;;6.71;100.00;99846.13;2880477;80;21036;-88
2022/11/24 13:39:30;;;;;;;80.92;48.85;;;;;;;6.71;100.00;99854.06;2861070;80;21594;-89
2022/11/24 13:43:31;;;;;;;99.15;50.20;;;;;;;6.67;100.00;99848.63;2869919;80;21047;-89
2022/11/24 13:47:44;;;;;;;83.95;50.98;;;;;;;6.78;100.00;99859.75;2833560;80;21555;-89
2022/11/24 13:51:45;;;;;;;109.48;64.75;;;;;;;6.88;100.00;99856.81;2883640;80;21019;-89
2022/11/24 13:55:57;;;;;;;87.25;55.45;;;;;;;6.93;99.87;99868.34;2863843;82;21543;-89
2022/11/24 14:00:06;;;;;;;84.10;53.23;;;;;;;6.86;98.70;99865.30;2848773;80;21039;-89
2022/11/24 14:04:27;;;;;;;96.00;54.90;;;;;;;6.77;98.13;99862.02;2898587;80;21045;-89
2022/11/24 14:08:33;;;;;;;90.05;52.73;;;;;;;6.69;98.53;99866.08;2855533;81;21130;-89
2022/11/24 14:12:36;;;;;;;84.80;52.95;;;;;;;6.54;98.54;99867.18;2879359;80;21122;-89
2022/11/24 14:16:37;;;;;;;98.62;56.23;;;;;;;6.42;98.99;99877.66;2854158;82;21015;-91
2022/11/24 14:20:39;;;;;;;89.45;51.77;;;;;;;6.40;100.00;99880.89;2851917;82;21067;-93
2022/11/24 14:24:43;;;;;;;101.45;55.10;;;;;;;6.35;100.00;99881.70;2861757;81;21027;-92
2022/11/24 14:28:45;;;;;;;85.30;54.13;;;;;;;6.32;100.00;99881.92;2834185;80;21566;-94
2022/11/24 14:32:59;;;;;;;85.70;53.42;;;;;;;6.31;100.00;99882.88;2835292;82;21023;-90
2022/11/24 14:37:01;;;;;;;84.52;51.35;;;;;;;6.35;100.00;99883.02;2811295;82;21033;-94
2022/11/24 14:41:24;;;;;;;87.15;55.95;;;;;;;6.39;100.00;99881.84;2847781;81;21515;-94
2022/11/24 14:45:27;;;;;;;91.72;54.08;;;;;;;6.43;100.00;99887.27;2870851;79;21549;-94
2022/11/24 14:49:30;;;;;;;78.92;52.15;;;;;;;6.47;100.00;99892.33;2865823;81;21515;-90
2022/11/24 14:53:34;;;;;;;79.40;50.05;;;;;;;6.56;100.00;99904.41;2889409;80;21652;-89
2022/11/24 14:57:37;;;;;;;98.20;58.25;;;;;;;6.48;99.57;99896.66;2912790;80;21518;-89
2022/11/24 15:01:38;;;;;;;97.65;58.38;;;;;;;6.36;99.95;99891.77;2906003;80;21050;-90
2022/11/24 15:05:57;;;;;;;110.12;66.02;;;;;;;6.25;99.93;99899.13;2915770;80;21034;-88
2022/11/24 15:10:00;;;;;;;101.12;58.75;;;;;;;6.25;100.00;99906.59;2863657;81;21570;-89
2022/11/24 15:14:02;;;;;;;102.67;56.40;;;;;;;6.25;99.67;99917.63;2897193;80;21035;-89
2022/11/24 15:18:05;;;;;;;100.18;62.80;;;;;;;6.28;99.94;99918.73;2933991;80;21070;-89
2022/11/24 15:22:37;;;;;;;92.00;59.70;;;;;;;6.36;100.00;99924.80;2899541;79;21062;-90
2022/11/24 15:26:38;;;;;;;95.83;60.88;;;;;;;6.50;100.00;99926.49;2870670;79;21015;-89
2022/11/24 15:30:41;;;;;;;85.12;52.53;;;;;;;6.64;99.41;99945.33;2890426;80;21061;-90
2022/11/24 15:34:43;;;;;;;78.30;50.65;;;;;;;6.59;98.24;99944.33;2911950;79;21055;-90
2022/11/24 15:38:44;;;;;;;92.15;52.08;;;;;;;6.54;98.21;99943.33;2831115;82;21070;-89
2022/11/24 15:42:53;;;;;;;79.07;50.78;;;;;;;6.48;98.32;99946.87;2899433;79;21601;-89
2022/11/24 15:46:54;;;;;;;79.42;49.65;;;;;;;6.34;98.11;99951.34;2896820;79;21534;-90
2022/11/24 15:50:57;;;;;;;67.58;43.60;;;;;;;6.22;99.13;99958.78;2927708;79;20964;-90
2022/11/24 15:54:59;;;;;;;85.00;51.88;;;;;;;6.18;98.54;99959.95;2895776;80;21007;-90
2022/11/24 15:59:01;;;;;;;111.52;67.35;;;;;;;6.13;98.73;99964.22;2896775;80;21911;-88
2022/11/24 16:03:02;;;;;;;157.43;89.77;;;;;;;5.98;99.42;99966.09;2895150;79;21013;-89
2022/11/24 16:07:05;;;;;;;79.67;50.65;;;;;;;5.99;100.00;99972.59;2876564;79;21030;-88
2022/11/24 16:11:08;;;;;;;88.82;54.55;;;;;;;6.14;100.00;99968.55;2914058;80;21015;-89
2022/11/24 16:15:09;;;;;;;69.75;47.33;;;;;;;6.24;100.00;99964.80;2901657;79;21022;-89
2022/11/24 16:19:11;;;;;;;92.90;52.40;;;;;;;6.29;98.94;99971.47;2944526;80;21066;-88
2022/11/24 16:23:12;;;;;;;81.55;52.95;;;;;;;6.24;98.09;99976.69;2905906;79;21034;-88
2022/11/24 16:27:15;;;;;;;85.10;54.63;;;;;;;6.25;97.56;99977.05;2846555;80;21020;-89
2022/11/24 16:31:18;;;;;;;94.50;59.00;;;;;;;6.06;97.79;99982.28;2861779;81;21039;-89
2022/11/24 16:35:20;;;;;;;101.02;60.52;;;;;;;6.02;98.36;99986.08;2888320;81;21016;-88
2022/11/24 16:39:21;;;;;;;112.95;66.90;;;;;;;6.07;99.81;99986.61;2870016;80;21436;-90
2022/11/24 16:43:23;;;;;;;97.12;64.42;;;;;;;6.13;99.76;99996.77;2862760;81;20996;-89
2022/11/24 16:47:24;;;;;;;90.75;59.85;;;;;;;6.22;99.37;99998.41;2857105;82;21079;-89
2022/11/24 16:51:26;;;;;;;85.03;56.60;;;;;;;6.20;97.69;100002.48;2869192;81;21041;-89
2022/11/24 16:55:28;;;;;;;93.52;55.90;;;;;;;6.01;98.39;100001.55;2880703;81;21087;-88
2022/11/24 16:59:30;;;;;;;178.20;113.03;;;;;;;5.67;99.41;100016.50;2862376;81;21040;-89
2022/11/24 17:03:37;;;;;;;180.35;103.17;;;;;;;5.43;100.00;100022.44;2885995;80;30018;-89
2022/11/24 17:07:39;;;;;;;101.12;66.20;;;;;;;5.38;100.00;100022.36;2856906;81;21052;-89
2022/11/24 17:11:40;;;;;;;95.05;58.70;;;;;;;5.51;100.00;100027.22;2857114;81;21717;-89
2022/11/24 17:15:41;;;;;;;104.67;58.08;;;;;;;5.65;100.00;100034.23;2855368;82;21008;-88
2022/11/24 17:19:43;;;;;;;96.17;65.60;;;;;;;5.71;100.00;100038.27;2859227;81;21541;-91
2022/11/24 17:23:45;;;;;;;98.12;59.98;;;;;;;5.64;100.00;100038.27;2886813;80;20984;-89
2022/11/24 17:27:46;;;;;;;106.50;64.72;;;;;;;5.66;100.00;100037.23;2880877;81;21954;-90
2022/11/24 17:31:47;;;;;;;95.72;56.85;;;;;;;5.69;98.96;100045.41;2928872;80;21320;-92
2022/11/24 17:35:49;;;;;;;73.28;51.48;;;;;;;5.69;99.05;100048.05;2912892;80;21039;-91
2022/11/24 17:39:50;;;;;;;71.17;46.68;;;;;;;5.78;99.40;100055.38;2926647;80;21608;-91
2022/11/24 17:43:58;;;;;;;76.22;47.33;;;;;;;5.86;99.38;100054.39;2847953;80;21077;-92
2022/11/24 17:48:00;;;;;;;68.40;46.63;;;;;;;5.97;98.62;100051.53;2857911;79;21572;-92
2022/11/24 17:52:01;;;;;;;79.92;51.20;;;;;;;6.04;97.96;100049.36;2860746;80;21401;-91
2022/11/24 17:56:06;;;;;;;84.40;54.85;;;;;;;6.06;96.75;100050.94;2900383;80;21034;-88
2022/11/24 18:00:09;;;;;;;84.65;59.60;;;;;;;5.97;96.03;100066.05;2894203;80;21019;-90
2022/11/24 18:04:11;;;;;;;85.87;55.73;;;;;;;5.90;95.91;100062.13;2890487;80;21568;-91
2022/11/24 18:08:12;;;;;;;93.85;59.65;;;;;;;5.86;96.67;100070.23;2922440;80;21018;-90
2022/11/24 18:12:13;;;;;;;94.80;56.35;;;;;;;5.90;97.19;100076.66;2898476;80;21078;-91
2022/11/24 18:16:15;;;;;;;94.30;60.67;;;;;;;5.91;96.39;100077.03;2907221;80;21002;-90
2022/11/24 18:20:17;;;;;;;116.17;62.73;;;;;;;5.93;96.35;100084.37;2909547;80;21081;-91
2022/11/24 18:24:18;;;;;;;98.50;55.75;;;;;;;5.90;96.41;100080.61;2915264;80;21062;-88
2022/11/24 18:28:20;;;;;;;87.37;56.68;;;;;;;5.92;96.63;100084.83;2892232;80;21010;-89
2022/11/24 18:32:22;;;;;;;82.57;51.53;;;;;;;5.89;96.60;100082.39;2856048;81;21011;-89
2022/11/24 18:36:23;;;;;;;87.67;56.25;;;;;;;5.91;96.56;100084.45;2872158;81;21011;-89
2022/11/24 18:40:25;;;;;;;77.40;50.58;;;;;;;5.92;96.01;100086.64;2865109;81;21914;-90
2022/11/24 18:44:26;;;;;;;76.97;49.10;;;;;;;5.92;96.36;100089.28;2839017;81;21019;-90
2022/11/24 18:48:29;;;;;;;108.03;69.00;;;;;;;5.94;95.83;100086.06;2891505;80;21491;-90
2022/11/24 18:52:30;;;;;;;143.32;90.17;;;;;;;6.00;96.60;100085.64;2893797;81;21058;-90
2022/11/24 18:56:32;;;;;;;88.12;57.98;;;;;;;6.02;97.12;100082.95;2889931;80;21035;-91
2022/11/24 19:00:33;;;;;;;107.58;69.00;;;;;;;6.00;96.14;100081.23;2892042;80;21645;-91
2022/11/24 19:04:34;;;;;;;95.25;64.77;;;;;;;5.97;95.15;100081.41;2876720;81;20956;-91
2022/11/24 19:08:35;;;;;;;89.65;55.80;;;;;;;5.93;95.22;100081.23;2815622;81;21011;-91
2022/11/24 19:12:37;;;;;;;84.52;55.38;;;;;;;5.82;94.82;100078.47;2859218;81;21062;-90